Ward, Alabama
Current Conditions -  °F | °C
As of 10:15 PM on Wednesday 26 Nov 2014 (Local Time) from KDYA Reporting Station
Clear Clear  
Wind Chill: 46°   Ceiling: Unl
Heat Index: 49°   Visibility: 10mi
Dew Point: 33°   Wind: 6mph
Humidity: 55%   Direction: 330°NNW
Pressure: 30.19"   Gusts: NA
Location:  32.36°N, 88.28°W
Report Text: KDYA 270415Z AUTO 33005KT 10SM CLR 09/01 A3019 RMK AO2 T00930006
Loading
Personal Weather Stations






























Interactive Weather Map New forecast layout! Learn more

10-Day Weather Forecast

Advertisements
Track Severe Weather on mobile